Terminal Aerodrome Forecast
Issued by NWS Jacksonville, FL

Home | Current Version | Previous Version | Text Only | Print | Product List | Glossary On
Versions: 1 2 3 4 5 6 7 8 9 10 11 12 13
000
FTUS42 KJAX 150500
TAFGNV
TAF
KGNV 150520Z 1506/1606 17004KT P6SM BKN250
      TEMPO 1509/1512 4SM BR
     FM151600 22005KT P6SM VCSH SCT035 SCT200
     FM151900 23007KT P6SM VCTS SCT030CB BKN050
     FM152300 24004KT P6SM SCT150 BKN250=

USA.gov is the U.S. government's official web portal to all federal, state and local government web resources and services.